createdAt,value
2023-02-09T00:01:33.260Z,99.9
2023-02-09T00:05:40.145Z,99.9
2023-02-09T00:07:41.974Z,99.9
2023-02-09T00:09:43.804Z,99.9
2023-02-09T00:11:45.644Z,99.9
2023-02-09T00:17:51.146Z,99.9
2023-02-09T00:21:58.043Z,99.9
2023-02-09T00:23:59.873Z,99.9
2023-02-09T00:26:01.669Z,99.9
2023-02-09T00:28:03.534Z,99.9
2023-02-09T00:30:05.312Z,99.9
2023-02-09T00:32:07.177Z,99.9
2023-02-09T00:34:12.191Z,99.9
2023-02-09T00:36:13.995Z,99.9
2023-02-09T00:38:15.846Z,99.9
2023-02-09T00:40:17.694Z,99.9
2023-02-09T00:42:19.518Z,99.9
2023-02-09T00:44:21.284Z,99.9
2023-02-09T00:46:23.104Z,99.9
2023-02-09T00:48:28.169Z,99.9
2023-02-09T00:50:29.984Z,99.9
2023-02-09T00:52:31.808Z,99.9
2023-02-09T00:53:34.352Z,99.9
2023-02-09T00:55:36.193Z,99.9
2023-02-09T00:57:38.038Z,99.9
2023-02-09T00:59:39.849Z,99.9
2023-02-09T01:01:44.899Z,99.9
2023-02-09T01:07:50.376Z,99.9
2023-02-09T01:09:52.185Z,99.9
2023-02-09T01:11:54.047Z,99.9
2023-02-09T01:13:55.839Z,99.9
2023-02-09T01:16:00.900Z,99.9
2023-02-09T01:18:02.732Z,99.9
2023-02-09T01:20:06.105Z,99.9
2023-02-09T01:22:07.887Z,99.9
2023-02-09T01:24:09.710Z,99.9
2023-02-09T01:26:11.532Z,99.9
2023-02-09T01:28:13.444Z,99.9
2023-02-09T01:32:20.248Z,99.9
2023-02-09T01:34:22.053Z,99.9
2023-02-09T01:36:23.895Z,99.9
2023-02-09T01:38:25.714Z,99.9
2023-02-09T01:40:27.517Z,99.9
2023-02-09T01:42:29.353Z,99.9
2023-02-09T01:44:34.378Z,99.9
2023-02-09T01:46:36.288Z,99.9
2023-02-09T01:48:38.047Z,99.9
2023-02-09T01:49:40.517Z,99.9
2023-02-09T01:51:42.334Z,99.9
2023-02-09T01:57:50.939Z,99.9
2023-02-09T01:59:52.756Z,99.9
2023-02-09T02:07:59.948Z,99.9
2023-02-09T02:10:01.745Z,99.9
2023-02-09T02:12:06.840Z,99.9
2023-02-09T02:14:08.626Z,99.9
2023-02-09T02:16:10.525Z,99.9
2023-02-09T02:18:12.282Z,99.9
2023-02-09T02:20:14.098Z,99.9
2023-02-09T02:22:15.921Z,99.9
2023-02-09T02:24:17.749Z,99.9
2023-02-09T02:26:22.811Z,99.9
2023-02-09T02:28:24.631Z,99.9
2023-02-09T02:30:26.459Z,99.9
2023-02-09T02:32:28.274Z,99.9
2023-02-09T02:34:30.137Z,99.9
2023-02-09T02:36:31.956Z,99.9
2023-02-09T02:38:33.772Z,99.9
2023-02-09T02:40:38.862Z,99.9
2023-02-09T02:42:40.667Z,99.9
2023-02-09T02:44:42.484Z,99.9
2023-02-09T02:45:45.068Z,99.9
2023-02-09T02:47:46.891Z,99.9
2023-02-09T02:51:50.585Z,99.9
2023-02-09T02:53:55.647Z,99.9
2023-02-09T02:55:57.488Z,99.9
2023-02-09T02:57:59.315Z,99.9
2023-02-09T03:00:01.188Z,99.9
2023-02-09T03:02:02.998Z,99.9
2023-02-09T03:04:04.824Z,99.9
2023-02-09T03:06:06.651Z,99.9
2023-02-09T03:08:11.758Z,99.9
2023-02-09T03:10:13.550Z,99.8
2023-02-09T03:12:15.381Z,99.7
2023-02-09T03:14:17.238Z,99.5
2023-02-09T03:18:20.899Z,99
2023-02-09T03:20:22.720Z,98.7
2023-02-09T03:22:27.794Z,98.2
2023-02-09T03:24:29.628Z,98.1
2023-02-09T03:28:33.356Z,98
2023-02-09T03:32:36.942Z,98.1
2023-02-09T03:34:38.799Z,98
2023-02-09T03:36:43.865Z,98
2023-02-09T03:38:45.675Z,97.9
2023-02-09T03:40:47.648Z,97.9
2023-02-09T03:43:16.300Z,98.1
2023-02-09T03:45:18.123Z,98.2
2023-02-09T03:47:19.985Z,98.3
2023-02-09T03:49:25.057Z,98.2
2023-02-09T03:51:27.059Z,98.1
2023-02-09T03:53:28.777Z,97.9
2023-02-09T03:55:30.654Z,97.7
2023-02-09T03:57:32.463Z,97.6
2023-02-09T03:59:34.324Z,97.5
2023-02-09T04:01:36.160Z,97.5
2023-02-09T04:03:41.253Z,97.5
2023-02-09T04:05:43.088Z,97.6
2023-02-09T04:07:44.924Z,97.6
2023-02-09T04:09:46.762Z,97.7
2023-02-09T04:11:48.782Z,97.7
2023-02-09T04:15:52.372Z,98
2023-02-09T04:17:57.395Z,98.3
2023-02-09T04:19:59.257Z,98.4
2023-02-09T04:22:01.127Z,98.4
2023-02-09T04:24:02.941Z,98.4
2023-02-09T04:26:04.814Z,98.4
2023-02-09T04:28:06.700Z,98.4
2023-02-09T04:30:08.518Z,98.4
2023-02-09T04:32:13.643Z,98.6
2023-02-09T04:34:15.445Z,98.7
2023-02-09T04:37:19.832Z,98.8
2023-02-09T04:39:21.675Z,98.8
2023-02-09T04:41:23.527Z,98.8
2023-02-09T04:43:25.354Z,98.9
2023-02-09T04:45:30.494Z,99.1
2023-02-09T04:47:32.304Z,99.3
2023-02-09T04:49:34.179Z,99.5
2023-02-09T04:51:36.033Z,99.6
2023-02-09T04:53:37.875Z,99.7
2023-02-09T04:55:39.711Z,99.7
2023-02-09T04:57:41.567Z,99.8
2023-02-09T04:59:46.662Z,99.8
2023-02-09T05:01:48.515Z,99.8
2023-02-09T05:05:52.184Z,99.8
2023-02-09T05:07:54.029Z,99.9
2023-02-09T05:09:55.887Z,99.9
2023-02-09T05:11:57.716Z,99.9
2023-02-09T05:14:02.812Z,99.9
2023-02-09T05:16:04.641Z,99.9
2023-02-09T05:18:06.474Z,99.9
2023-02-09T05:26:13.862Z,99.9
2023-02-09T05:28:19.039Z,99.9
2023-02-09T05:30:20.749Z,99.9
2023-02-09T05:32:22.685Z,99.9
2023-02-09T05:33:25.853Z,99.9
2023-02-09T05:39:31.404Z,99.9
2023-02-09T05:43:38.290Z,99.9
2023-02-09T05:45:40.205Z,99.9
2023-02-09T05:47:41.962Z,99.9
2023-02-09T05:53:47.458Z,99.9
2023-02-09T05:55:52.541Z,99.9
2023-02-09T05:57:54.384Z,99.9
2023-02-09T05:59:56.227Z,99.9
2023-02-09T06:06:01.757Z,99.9
2023-02-09T06:08:03.593Z,99.9
2023-02-09T06:10:08.665Z,99.9
2023-02-09T06:14:12.330Z,99.9
2023-02-09T06:16:14.143Z,99.9
2023-02-09T06:18:16.017Z,99.9
2023-02-09T06:20:17.850Z,99.9
2023-02-09T06:22:19.693Z,99.9
2023-02-09T06:26:26.642Z,99.9
2023-02-09T06:28:28.493Z,99.9
2023-02-09T06:29:30.997Z,99.9
2023-02-09T06:31:32.947Z,99.9
2023-02-09T06:33:34.698Z,99.9
2023-02-09T06:35:36.593Z,99.9
2023-02-09T06:37:41.689Z,99.9
2023-02-09T06:39:43.509Z,99.9
2023-02-09T06:41:45.322Z,99.9
2023-02-09T06:45:49.124Z,99.9
2023-02-09T06:47:50.861Z,99.9
2023-02-09T06:49:52.715Z,99.9
2023-02-09T06:51:57.804Z,99.9
2023-02-09T06:53:59.583Z,99.9
2023-02-09T06:56:01.455Z,99.9
2023-02-09T07:04:08.806Z,99.9
2023-02-09T07:06:13.897Z,99.9
2023-02-09T07:08:15.765Z,99.9
2023-02-09T07:12:20.982Z,99.9
2023-02-09T07:16:24.673Z,99.9
2023-02-09T07:18:26.490Z,99.9
2023-02-09T07:20:31.571Z,99.9
2023-02-09T07:22:33.426Z,99.9
2023-02-09T07:24:35.268Z,99.9
2023-02-09T07:27:04.081Z,99.9
2023-02-09T07:31:07.977Z,99.9
2023-02-09T07:33:12.812Z,99.9
2023-02-09T07:35:14.647Z,99.9
2023-02-09T07:37:16.504Z,99.9
2023-02-09T07:39:18.318Z,99.9
2023-02-09T07:41:20.161Z,99.9
2023-02-09T07:43:21.997Z,99.9
2023-02-09T07:45:23.844Z,99.9
2023-02-09T07:47:28.920Z,99.9
2023-02-09T07:49:30.783Z,99.9
2023-02-09T07:51:34.272Z,99.9
2023-02-09T07:53:34.455Z,99.9
2023-02-09T07:55:36.250Z,99.9
2023-02-09T07:57:38.122Z,99.9
2023-02-09T07:59:39.967Z,99.9
2023-02-09T08:03:46.867Z,99.9
2023-02-09T08:05:48.946Z,99.9
2023-02-09T08:07:50.524Z,99.9
2023-02-09T08:09:52.342Z,99.9
2023-02-09T08:11:54.294Z,99.9
2023-02-09T08:16:01.179Z,99.9
2023-02-09T08:18:02.972Z,99.9
2023-02-09T08:20:04.824Z,99.9
2023-02-09T08:21:07.370Z,99.9
2023-02-09T08:23:09.218Z,99.9
2023-02-09T08:25:11.080Z,99.9
2023-02-09T08:27:12.920Z,99.9
2023-02-09T08:29:17.977Z,99.9
2023-02-09T08:31:19.949Z,99.9
2023-02-09T08:33:21.681Z,99.9
2023-02-09T08:35:23.539Z,99.9
2023-02-09T08:37:25.368Z,99.9
2023-02-09T08:39:27.242Z,99.9
2023-02-09T08:41:29.110Z,99.9
2023-02-09T08:43:34.173Z,99.9
2023-02-09T08:45:36.210Z,99.9
2023-02-09T08:47:37.915Z,99.9
2023-02-09T08:49:39.776Z,99.9
2023-02-09T08:51:41.630Z,99.9
2023-02-09T08:53:43.512Z,99.9
2023-02-09T08:55:45.731Z,99.9
2023-02-09T08:57:50.501Z,99.9
2023-02-09T08:59:52.392Z,99.9
2023-02-09T09:01:54.205Z,99.9
2023-02-09T09:03:56.116Z,99.9
2023-02-09T09:05:57.968Z,99.9
2023-02-09T09:07:59.845Z,99.9
2023-02-09T09:10:01.739Z,99.9
2023-02-09T09:12:06.869Z,99.9
2023-02-09T09:14:08.745Z,99.9
2023-02-09T09:16:10.669Z,99.9
2023-02-09T09:17:13.180Z,99.9
2023-02-09T09:19:15.100Z,99.9
2023-02-09T09:21:16.980Z,99.9
2023-02-09T09:23:18.880Z,99.9
2023-02-09T09:25:24.028Z,99.9
2023-02-09T09:27:27.058Z,99.9
2023-02-09T09:29:27.813Z,99.9
2023-02-09T09:31:29.911Z,99.9
2023-02-09T09:33:31.635Z,99.9
2023-02-09T09:35:33.525Z,99.9
2023-02-09T09:37:35.424Z,99.9
2023-02-09T09:39:40.553Z,99.9
2023-02-09T09:41:42.494Z,99.9
2023-02-09T09:43:44.400Z,99.9
2023-02-09T09:55:59.088Z,99.9
2023-02-09T09:58:01.009Z,99.9
2023-02-09T10:06:08.670Z,99.9
2023-02-09T10:08:13.835Z,99.9
2023-02-09T10:10:15.736Z,99.9
2023-02-09T10:12:17.679Z,99.9
2023-02-09T10:13:20.269Z,99.9
2023-02-09T10:15:22.214Z,99.9
2023-02-09T10:17:24.137Z,99.9
2023-02-09T10:19:26.072Z,99.9
2023-02-09T10:21:31.264Z,99.9
2023-02-09T10:23:33.174Z,99.9
2023-02-09T10:25:35.132Z,99.9
2023-02-09T10:27:37.089Z,99.9
2023-02-09T10:29:38.999Z,99.9
2023-02-09T10:31:41.071Z,99.9
2023-02-09T10:33:42.896Z,99.9
2023-02-09T10:35:48.337Z,99.7
2023-02-09T10:37:50.062Z,99.6
2023-02-09T10:39:52.029Z,99.6
2023-02-09T10:41:54.002Z,99.5
2023-02-09T10:45:58.035Z,99.3
2023-02-09T10:47:59.908Z,99.3
2023-02-09T10:54:09.081Z,99.3
2023-02-09T10:58:13.075Z,99.5
2023-02-09T11:00:15.051Z,99.5
2023-02-09T11:02:17.058Z,99.6
2023-02-09T11:04:22.364Z,99.5
2023-02-09T11:06:24.265Z,99.5
2023-02-09T11:08:26.286Z,99.5
2023-02-09T11:10:55.079Z,99.6
2023-02-09T11:12:57.100Z,99.7
2023-02-09T11:14:59.106Z,99.8
2023-02-09T11:17:04.498Z,99.9
2023-02-09T11:19:07.751Z,99.9
2023-02-09T11:21:08.355Z,99.9
2023-02-09T11:23:10.368Z,99.9
2023-02-09T11:25:12.382Z,99.9
2023-02-09T11:27:14.514Z,99.9
2023-02-09T11:29:16.360Z,99.9
2023-02-09T11:31:21.775Z,99.9
2023-02-09T11:33:23.603Z,99.9
2023-02-09T11:35:25.594Z,99.9
2023-02-09T11:37:27.593Z,99.9
2023-02-09T11:39:29.630Z,99.9
2023-02-09T11:43:33.613Z,99.9
2023-02-09T11:45:38.847Z,99.9
2023-02-09T11:47:40.866Z,99.9
2023-02-09T11:49:42.878Z,99.9
2023-02-09T11:51:44.989Z,99.9
2023-02-09T11:53:46.893Z,99.9
2023-02-09T11:55:48.883Z,99.9
2023-02-09T11:57:50.898Z,99.9
2023-02-09T11:59:56.144Z,99.9
2023-02-09T12:01:58.169Z,99.9
2023-02-09T12:05:02.938Z,99.9
2023-02-09T12:07:04.923Z,99.9
2023-02-09T12:09:06.945Z,99.9
2023-02-09T12:11:08.956Z,99.9
2023-02-09T12:13:14.235Z,99.9
2023-02-09T12:15:16.265Z,99.9
2023-02-09T12:17:18.249Z,99.9
2023-02-09T12:19:20.267Z,99.9
2023-02-09T12:21:22.298Z,99.9
2023-02-09T12:23:24.321Z,99.9
2023-02-09T12:27:31.593Z,99.9
2023-02-09T12:29:33.613Z,99.9
2023-02-09T12:33:37.685Z,99.9
2023-02-09T12:35:39.714Z,99.9
2023-02-09T12:37:41.745Z,99.9
2023-02-09T12:39:43.774Z,99.9
2023-02-09T12:41:49.043Z,99.9
2023-02-09T12:45:53.130Z,99.9
2023-02-09T12:47:55.112Z,99.9
2023-02-09T12:49:57.158Z,99.9
2023-02-09T12:51:59.209Z,99.9
2023-02-09T12:54:01.239Z,99.9
2023-02-09T12:56:06.500Z,99.9
2023-02-09T12:58:08.525Z,99.9
2023-02-09T13:00:10.574Z,99.9
2023-02-09T13:01:13.282Z,99.9
2023-02-09T13:03:16.798Z,99.9
2023-02-09T13:05:18.803Z,99.9
2023-02-09T13:07:20.849Z,99.9
2023-02-09T13:09:26.094Z,99.9
2023-02-09T13:11:28.137Z,99.9
2023-02-09T13:13:30.184Z,99.9
2023-02-09T13:17:34.243Z,99.9
2023-02-09T13:19:47.079Z,99.9
2023-02-09T13:21:38.354Z,99.9
2023-02-09T13:23:43.620Z,99.9
2023-02-09T13:25:45.891Z,99.9
2023-02-09T13:27:47.728Z,99.9
2023-02-09T13:29:49.732Z,99.9
2023-02-09T13:31:51.901Z,99.9
2023-02-09T13:35:55.860Z,99.9
2023-02-09T13:38:01.133Z,99.9
2023-02-09T13:40:03.202Z,99.9
2023-02-09T13:42:05.258Z,99.9
2023-02-09T13:48:13.115Z,99.9
2023-02-09T13:50:13.434Z,99.9
2023-02-09T13:52:18.654Z,99.9
2023-02-09T13:54:20.718Z,99.9
2023-02-09T13:57:25.537Z,99.9
2023-02-09T13:59:27.438Z,99.9
2023-02-09T14:01:29.522Z,99.9
2023-02-09T14:03:31.542Z,99.9
2023-02-09T14:05:36.863Z,99.9
2023-02-09T14:07:38.871Z,99.9
2023-02-09T14:09:40.903Z,99.9
2023-02-09T14:15:47.328Z,99.9
2023-02-09T14:17:49.137Z,99.9
2023-02-09T14:23:58.469Z,99.9
2023-02-09T14:26:00.511Z,99.9
2023-02-09T14:28:02.574Z,99.9
2023-02-09T14:30:04.605Z,99.9
2023-02-09T14:32:06.643Z,99.9
2023-02-09T14:34:12.600Z,99.9
2023-02-09T14:36:13.970Z,99.9
2023-02-09T14:38:16.022Z,99.9
2023-02-09T14:40:18.059Z,99.9
2023-02-09T14:42:20.110Z,99.9
2023-02-09T14:48:29.518Z,99.9
2023-02-09T14:52:33.562Z,99.9
2023-02-09T14:55:02.366Z,99.9
2023-02-09T14:57:04.458Z,99.9
2023-02-09T15:01:11.767Z,99.9
2023-02-09T15:03:13.753Z,99.9
2023-02-09T15:05:15.811Z,99.9
2023-02-09T15:07:17.851Z,99.9
2023-02-09T15:09:19.902Z,99.9
2023-02-09T15:11:21.930Z,99.9
2023-02-09T15:13:23.974Z,99.9
2023-02-09T15:15:29.307Z,99.9
2023-02-09T15:17:31.278Z,99.9
2023-02-09T15:19:33.311Z,99.9
2023-02-09T15:21:35.343Z,99.9
2023-02-09T15:23:37.405Z,99.9
2023-02-09T15:25:39.428Z,99.9
2023-02-09T15:27:41.444Z,99.9
2023-02-09T15:29:46.719Z,99.9
2023-02-09T15:31:48.755Z,99.9
2023-02-09T15:35:52.818Z,99.9
2023-02-09T15:37:54.850Z,99.9
2023-02-09T15:39:56.861Z,99.9
2023-02-09T15:41:58.907Z,99.9
2023-02-09T15:46:06.240Z,99.9
2023-02-09T15:48:08.232Z,99.9
2023-02-09T15:49:10.839Z,99.9
2023-02-09T15:51:12.883Z,99.9
2023-02-09T15:57:22.187Z,99.9
2023-02-09T16:03:28.292Z,99.9
2023-02-09T16:13:41.652Z,99.9
2023-02-09T16:17:45.731Z,99.9
2023-02-09T16:19:47.737Z,99.9
2023-02-09T16:21:49.754Z,99.9
2023-02-09T16:23:51.763Z,99.9
2023-02-09T16:27:59.117Z,99.9
2023-02-09T16:30:01.222Z,99.9
2023-02-09T16:32:03.127Z,99.9
2023-02-09T16:34:05.169Z,99.9
2023-02-09T16:36:07.206Z,99.9
2023-02-09T16:38:09.320Z,99.9
2023-02-09T16:40:14.462Z,99.9
2023-02-09T16:42:16.491Z,99.9
2023-02-09T16:44:18.496Z,99.9
2023-02-09T16:45:21.136Z,99.9
2023-02-09T16:47:23.162Z,99.9
2023-02-09T16:49:25.195Z,99.9
2023-02-09T16:53:32.626Z,99.9
2023-02-09T16:55:34.487Z,99.9
2023-02-09T16:57:36.512Z,99.9
2023-02-09T16:59:38.512Z,99.9
2023-02-09T17:01:40.532Z,99.9
2023-02-09T17:03:42.531Z,99.9
2023-02-09T17:05:44.878Z,99.9
2023-02-09T17:07:54.873Z,99.9
2023-02-09T17:09:51.856Z,99.9
2023-02-09T17:15:57.957Z,99.9
2023-02-09T17:18:01.972Z,99.9
2023-02-09T17:20:01.985Z,99.9
2023-02-09T17:22:07.217Z,99.9
2023-02-09T17:24:09.262Z,99.9
2023-02-09T17:26:11.290Z,99.9
2023-02-09T17:28:13.372Z,99.9
2023-02-09T17:30:15.346Z,99.9
2023-02-09T17:32:17.448Z,99.9
2023-02-09T17:34:19.420Z,99.9
2023-02-09T17:36:27.583Z,99.9
2023-02-09T17:38:26.697Z,99.9
2023-02-09T17:40:28.748Z,99.9
2023-02-09T17:43:33.402Z,99.9
2023-02-09T17:45:35.514Z,99.9
2023-02-09T17:47:37.462Z,99.9
2023-02-09T17:49:42.723Z,99.9
2023-02-09T17:51:44.767Z,99.9
2023-02-09T17:53:46.785Z,99.9
2023-02-09T17:55:49.133Z,99.9
2023-02-09T17:57:50.888Z,99.9
2023-02-09T17:59:52.918Z,99.9
2023-02-09T18:01:54.908Z,99.9
2023-02-09T18:04:00.207Z,99.9
2023-02-09T18:06:02.215Z,99.9
2023-02-09T18:08:04.242Z,99.9
2023-02-09T18:12:08.297Z,99.9
2023-02-09T18:16:12.332Z,99.9
2023-02-09T18:18:17.633Z,99.9
2023-02-09T18:22:21.704Z,99.9
2023-02-09T18:26:25.781Z,99.9
2023-02-09T18:28:27.856Z,99.9
2023-02-09T18:30:29.873Z,99.9
2023-02-09T18:34:37.104Z,99.9
2023-02-09T18:36:39.119Z,99.9
2023-02-09T18:39:07.992Z,99.9
2023-02-09T18:41:10.011Z,99.9
2023-02-09T18:43:12.037Z,99.9
2023-02-09T18:45:17.332Z,99.9
2023-02-09T18:47:19.385Z,99.9
2023-02-09T18:49:21.391Z,99.9
2023-02-09T18:53:25.400Z,99.9
2023-02-09T18:55:28.984Z,99.9
2023-02-09T18:57:30.974Z,99.9
2023-02-09T18:59:36.224Z,99.9
2023-02-09T19:01:38.290Z,99.9
2023-02-09T19:03:40.285Z,99.9
2023-02-09T19:07:44.304Z,99.9
2023-02-09T19:11:48.338Z,99.9
2023-02-09T19:15:55.628Z,99.9
2023-02-09T19:17:57.618Z,99.9
2023-02-09T19:19:59.620Z,99.9
2023-02-09T19:22:01.623Z,99.9
2023-02-09T19:24:03.610Z,99.9
2023-02-09T19:26:05.638Z,99.9
2023-02-09T19:28:10.913Z,99.9
2023-02-09T19:30:14.206Z,99.9
2023-02-09T19:32:14.872Z,99.9
2023-02-09T19:35:19.466Z,99.9
2023-02-09T19:37:21.483Z,99.9
2023-02-09T19:39:23.479Z,99.9
2023-02-09T19:41:28.724Z,99.9
2023-02-09T19:43:30.716Z,99.9
2023-02-09T19:45:32.729Z,99.9
2023-02-09T19:47:34.715Z,99.9
2023-02-09T19:49:36.724Z,99.9
2023-02-09T19:51:38.688Z,99.9
2023-02-09T19:53:40.687Z,99.9
2023-02-09T19:55:46.188Z,99.9
2023-02-09T19:57:47.892Z,99.9
2023-02-09T19:59:49.876Z,99.9
2023-02-09T20:01:51.875Z,99.9
2023-02-09T20:03:53.893Z,99.9
2023-02-09T20:05:55.811Z,99.9
2023-02-09T20:07:57.806Z,99.9
2023-02-09T20:10:03.061Z,99.9
2023-02-09T20:12:04.990Z,99.9
2023-02-09T20:14:06.975Z,99.9
2023-02-09T20:16:09.008Z,99.9
2023-02-09T20:18:12.118Z,99.9
2023-02-09T20:20:12.892Z,99.9
2023-02-09T20:22:14.888Z,99.9
2023-02-09T20:24:20.113Z,99.9
2023-02-09T20:26:22.050Z,99.9
2023-02-09T20:28:24.134Z,99.9
2023-02-09T20:29:26.644Z,99.9
2023-02-09T20:31:28.660Z,99.9
2023-02-09T20:33:30.597Z,99.9
2023-02-09T20:35:32.588Z,99.9
2023-02-09T20:37:37.918Z,99.9
2023-02-09T20:39:39.748Z,99.9
2023-02-09T20:41:41.700Z,99.9
2023-02-09T20:43:43.686Z,99.9
2023-02-09T20:45:45.728Z,99.9
2023-02-09T20:47:47.736Z,99.9
2023-02-09T20:49:49.591Z,99.9
2023-02-09T20:55:58.708Z,99.9
2023-02-09T20:58:00.734Z,99.9
2023-02-09T21:00:02.680Z,99.9
2023-02-09T21:02:04.588Z,99.9
2023-02-09T21:06:11.752Z,99.9
2023-02-09T21:08:13.837Z,99.9
2023-02-09T21:10:15.707Z,99.9
2023-02-09T21:12:17.614Z,99.9
2023-02-09T21:14:27.475Z,99.9
2023-02-09T21:16:21.547Z,99.9
2023-02-09T21:18:23.476Z,99.9
2023-02-09T21:20:28.678Z,99.9
2023-02-09T21:22:30.626Z,99.9
2023-02-09T21:24:32.570Z,99.9
2023-02-09T21:25:35.081Z,99.9
2023-02-09T21:27:37.060Z,99.9
2023-02-09T21:29:38.975Z,99.9
2023-02-09T21:31:40.942Z,99.9
2023-02-09T21:33:46.221Z,99.9
2023-02-09T21:35:48.025Z,99.9
2023-02-09T21:37:49.979Z,99.9
2023-02-09T21:39:51.904Z,99.9
2023-02-09T21:41:53.910Z,99.9
2023-02-09T21:45:57.859Z,99.9
2023-02-09T21:48:02.937Z,99.9
2023-02-09T21:50:04.877Z,99.9
2023-02-09T21:52:06.827Z,99.9
2023-02-09T21:54:08.751Z,99.9
2023-02-09T21:56:10.680Z,99.9
2023-02-09T21:58:12.630Z,99.9
2023-02-09T22:00:14.580Z,99.9
2023-02-09T22:02:19.744Z,99.9
2023-02-09T22:04:21.747Z,99.9
2023-02-09T22:06:23.613Z,99.9
2023-02-09T22:08:25.564Z,99.9
2023-02-09T22:10:27.460Z,99.9
2023-02-09T22:12:29.414Z,99.9
2023-02-09T22:14:31.488Z,99.9
2023-02-09T22:16:36.542Z,99.9
2023-02-09T22:18:38.464Z,99.9
2023-02-09T22:20:40.385Z,99.9
2023-02-09T22:23:09.194Z,99.9
2023-02-09T22:25:11.124Z,99.9
2023-02-09T22:27:13.055Z,99.9
2023-02-09T22:29:18.234Z,99.9
2023-02-09T22:31:20.253Z,99.9
2023-02-09T22:33:22.106Z,99.9
2023-02-09T22:35:24.019Z,99.9
2023-02-09T22:39:27.919Z,99.9
2023-02-09T22:41:29.818Z,99.9
2023-02-09T22:43:35.040Z,99.9
2023-02-09T22:45:36.904Z,99.9
2023-02-09T22:47:38.834Z,99.9
2023-02-09T22:49:40.790Z,99.9
2023-02-09T22:51:42.710Z,99.9
2023-02-09T22:55:46.942Z,99.9
2023-02-09T22:59:53.723Z,99.9
2023-02-09T23:01:55.654Z,99.9
2023-02-09T23:05:59.514Z,99.9
2023-02-09T23:08:01.408Z,99.9
2023-02-09T23:10:03.345Z,99.9
2023-02-09T23:12:08.537Z,99.9
2023-02-09T23:14:11.297Z,99.9
2023-02-09T23:16:12.465Z,99.9
2023-02-09T23:17:14.964Z,99.9
2023-02-09T23:19:16.884Z,99.9
2023-02-09T23:21:18.794Z,99.9
2023-02-09T23:23:20.733Z,99.9
2023-02-09T23:25:25.888Z,99.9
2023-02-09T23:27:27.793Z,99.9
2023-02-09T23:29:29.706Z,99.9
2023-02-09T23:31:31.866Z,99.9
2023-02-09T23:35:35.459Z,99.9
2023-02-09T23:39:42.530Z,99.9
2023-02-09T23:41:44.452Z,99.9
2023-02-09T23:43:46.354Z,99.9
2023-02-09T23:45:48.273Z,99.9
2023-02-09T23:47:50.194Z,99.9
2023-02-09T23:49:52.108Z,99.9
2023-02-09T23:51:54.018Z,99.9
2023-02-09T23:53:59.184Z,99.9
2023-02-09T23:56:01.113Z,99.9
2023-02-09T23:58:03.012Z,99.9
